Airfield :
LOGIN :

Register | Disclaimer

   EN    FR    IT 

 










Legend :    VFR   Marginal VFR   IFR   Intensive IFR   Very Intensive IFR
Visi :
Ceiling :
>= 8 km
>= 3000ft
5 to 8 km
1000 to 3000 ft
1500m to 5 km
500 to 1000 ft
800 to 1500m
200 to 500 ft
< 800m
< 200 ft
Symbols :   Thunderstorms  Fog  Heavy snow  Heavy precipitations  Wind > 20 kt
SIGMETs :     Misc.  Thunderstorms  Icing  Turbulence  Mountain Waves  Volcanic Ashes






- Airport Elevation : 326 ft
- IATA code : LCG


LECO - A Coruna

CURRENT METAR :
  • 281830Z AUTO 03004KT CAVOK 26/18 Q1018

EXPIRED METARs :
  • 281800Z AUTO 03004KT 360V070 CAVOK 27/17 Q1018
  • 281730Z AUTO 02004KT 330V070 CAVOK 28/17 Q1018
  • 281700Z AUTO 36004KT 330V060 CAVOK 28/17 Q1018
  • 281630Z AUTO 02005KT 340V060 CAVOK 28/17 Q1018
  • 281600Z AUTO 02006KT 320V120 CAVOK 28/17 Q1018
  • 281530Z AUTO 33005KT 270V060 CAVOK 30/18 Q1018

TAF TAF LECO
Valid from the 28 at 15:00 until the 29 at 15:00 UTC


281400Z 2815/2915 01009KT CAVOK TX29/2815Z TN17/2905Z
PROB40
TEMPO 2815/2817 31010KT
PROB40
TEMPO 2815/2818 SCT020TCU
PROB30
TEMPO 2815/2818 TS SCT020CB
PROB30
TEMPO 2903/2909 3000 BCFG
TEMPO 2910/2915 31010KT



MET'MAP, your aeronautical weather chart ! - Copyright ORBIFLY December 2007 - Disclaimer

ORBIFLY MET'MAP TEAM :

Programming & Development : Alexandra Zaïnal
Concept & original design : Baudouin d'Aumeries
Assistance for programming : Marc-Olivier Méhu
Technical & hardware support : Manuel Goepfert

Contact : metmap@orbifly.com




SOURCES & CREDITS :

   NOAA